createdAt,value
2022-10-30T00:00:43.437Z,4.20
2022-10-30T00:03:12.897Z,3.63
2022-10-30T00:05:44.115Z,4.20
2022-10-30T00:08:13.118Z,3.90
2022-10-30T00:10:41.636Z,4.40
2022-10-30T00:13:11.533Z,5.20
2022-10-30T00:15:39.438Z,5.67
2022-10-30T00:18:07.488Z,3.50
2022-10-30T00:20:37.791Z,4.00
2022-10-30T00:23:05.779Z,4.77
2022-10-30T00:25:35.418Z,3.27
2022-10-30T00:28:03.550Z,3.70
2022-10-30T00:30:33.611Z,4.37
2022-10-30T00:33:01.699Z,4.20
2022-10-30T00:35:30.044Z,4.80
2022-10-30T00:37:58.707Z,4.35
2022-10-30T00:40:26.769Z,4.00
2022-10-30T00:42:54.608Z,4.77
2022-10-30T00:45:22.918Z,3.50
2022-10-30T00:47:56.442Z,4.73
2022-10-30T00:53:04.137Z,4.87
2022-10-30T00:55:37.285Z,4.23
2022-10-30T00:58:09.661Z,5.30
2022-10-30T01:00:40.878Z,4.27
2022-10-30T01:03:10.821Z,3.60
2022-10-30T01:05:39.542Z,4.80
2022-10-30T01:08:07.572Z,4.37
2022-10-30T01:10:35.755Z,3.63
2022-10-30T01:13:04.112Z,3.73
2022-10-30T01:15:36.519Z,4.00
2022-10-30T01:18:19.187Z,3.97
2022-10-30T01:21:02.509Z,3.77
2022-10-30T01:23:39.126Z,4.57
2022-10-30T01:26:18.664Z,3.67
2022-10-30T01:29:04.317Z,5.57
2022-10-30T01:31:45.581Z,3.97
2022-10-30T01:34:20.900Z,4.40
2022-10-30T01:36:57.829Z,4.67
2022-10-30T01:39:27.959Z,3.50
2022-10-30T01:41:56.132Z,4.37
2022-10-30T01:44:29.529Z,4.40
2022-10-30T01:47:12.219Z,3.57
2022-10-30T01:50:03.238Z,4.90
2022-10-30T10:40:46.648Z,1.70
2022-10-30T10:43:36.229Z,1.60
2022-10-30T10:46:24.565Z,1.80
2022-10-30T10:49:02.558Z,1.70
2022-10-30T10:51:33.426Z,2.00
2022-10-30T10:54:04.884Z,1.80
2022-10-30T10:56:42.706Z,2.60
2022-10-30T10:59:18.045Z,1.73
2022-10-30T11:01:51.546Z,3.10
2022-10-30T11:04:30.391Z,2.10
2022-10-30T11:07:02.597Z,2.83
2022-10-30T11:09:33.068Z,1.90
2022-10-30T11:12:02.842Z,2.33
2022-10-30T11:14:31.319Z,2.20
2022-10-30T11:17:06.580Z,2.80
2022-10-30T11:19:34.793Z,2.30
2022-10-30T11:22:07.741Z,2.73
2022-10-30T11:24:37.289Z,1.73
2022-10-30T11:27:26.280Z,2.93
2022-10-30T11:30:00.349Z,2.30
2022-10-30T11:32:30.711Z,2.28
2022-10-30T11:35:15.077Z,2.47
2022-10-30T11:37:48.275Z,2.17
2022-10-30T11:40:24.833Z,2.30
2022-10-30T11:43:00.608Z,2.17
2022-10-30T11:45:33.525Z,3.17
2022-10-30T11:48:04.591Z,2.50
2022-10-30T11:50:37.067Z,2.50
2022-10-30T11:53:14.193Z,3.17
2022-10-30T11:55:48.032Z,1.90
2022-10-30T11:58:27.242Z,2.40
2022-10-30T12:01:07.481Z,2.90
2022-10-30T12:03:38.800Z,2.93
2022-10-30T12:06:11.971Z,2.33
2022-10-30T12:08:40.342Z,2.73
2022-10-30T12:11:08.728Z,2.67
2022-10-30T12:13:42.077Z,2.20
2022-10-30T12:16:16.610Z,1.50
2022-10-30T12:19:18.316Z,3.90
2022-10-30T12:21:56.230Z,3.30
2022-10-30T12:24:32.797Z,2.60
2022-10-30T12:27:04.458Z,1.93
2022-10-30T12:30:07.384Z,2.80
2022-10-30T12:32:40.233Z,2.27
2022-10-30T12:35:27.512Z,2.67
2022-10-30T12:37:58.743Z,2.00
2022-10-30T12:40:31.271Z,2.00
2022-10-30T12:43:05.249Z,2.00
2022-10-30T12:45:41.340Z,1.50
2022-10-30T12:48:19.505Z,2.40
2022-10-30T12:50:55.469Z,2.50
2022-10-30T12:53:31.680Z,2.20
2022-10-30T12:56:10.383Z,1.80
2022-10-30T12:58:45.047Z,1.70
2022-10-30T13:01:27.163Z,2.13
2022-10-30T13:04:09.023Z,2.30
2022-10-30T13:06:43.413Z,1.83
2022-10-30T13:09:19.738Z,1.97
2022-10-30T13:11:59.144Z,1.77
2022-10-30T13:14:36.661Z,2.40
2022-10-30T13:17:12.879Z,1.93
2022-10-30T13:19:45.806Z,2.00
2022-10-30T13:22:19.981Z,2.40
2022-10-30T13:24:57.937Z,1.83
2022-10-30T13:27:42.865Z,2.63
2022-10-30T13:30:37.033Z,2.87
2022-10-30T13:33:22.262Z,2.20
2022-10-30T13:35:58.155Z,1.77
2022-10-30T13:38:44.240Z,2.33
2022-10-30T13:41:24.408Z,1.83
2022-10-30T13:44:01.819Z,1.93
2022-10-30T13:46:58.613Z,2.60
2022-10-30T13:49:48.502Z,2.20
2022-10-30T13:52:18.755Z,2.10
2022-10-30T13:54:51.911Z,1.70
2022-10-30T13:57:34.095Z,1.87
2022-10-30T14:00:07.440Z,2.47
2022-10-30T14:02:49.351Z,2.30
2022-10-30T14:05:32.065Z,2.23
2022-10-30T14:08:08.556Z,2.07
2022-10-30T14:10:49.075Z,2.17
2022-10-30T14:13:27.227Z,1.80
2022-10-30T14:16:03.375Z,2.87
2022-10-30T14:18:45.109Z,2.20
2022-10-30T14:21:54.461Z,2.23
2022-10-30T14:27:10.123Z,2.17
2022-10-30T14:29:51.746Z,2.23
2022-10-30T14:32:49.036Z,1.50
2022-10-30T14:35:38.600Z,1.70
2022-10-30T14:38:28.161Z,2.10
2022-10-30T14:41:31.749Z,1.70
2022-10-30T14:44:41.241Z,2.00
2022-10-30T14:47:45.966Z,2.23
2022-10-30T14:50:23.601Z,1.60
2022-10-30T14:53:11.340Z,2.20
2022-10-30T14:55:54.131Z,2.33
2022-10-30T14:58:26.125Z,2.27
2022-10-30T15:01:25.149Z,2.10
2022-10-30T15:04:14.821Z,2.50
2022-10-30T15:06:59.735Z,2.20
2022-10-30T15:09:41.775Z,2.87
2022-10-30T15:12:34.406Z,2.80
2022-10-30T15:15:12.813Z,2.60
2022-10-30T15:17:43.636Z,2.13
2022-10-30T15:20:17.972Z,2.60
2022-10-30T15:22:48.823Z,2.73
2022-10-30T15:25:21.113Z,2.33
2022-10-30T15:27:53.213Z,2.10
2022-10-30T15:30:23.408Z,2.10
2022-10-30T15:32:52.041Z,2.73
2022-10-30T15:35:21.783Z,3.17
2022-10-30T15:38:06.656Z,2.23
2022-10-30T15:40:36.331Z,2.10
2022-10-30T15:43:08.425Z,2.50
2022-10-30T15:45:39.639Z,2.80
2022-10-30T15:48:14.753Z,3.37
2022-10-30T15:50:56.068Z,3.90
2022-10-30T15:53:33.866Z,3.30
2022-10-30T15:56:04.138Z,3.70
2022-10-30T15:58:37.360Z,3.90
2022-10-30T16:01:05.796Z,3.40
2022-10-30T16:03:34.009Z,3.23
2022-10-30T16:06:07.184Z,2.73
2022-10-30T16:08:45.011Z,3.47
2022-10-30T16:11:15.286Z,3.10
2022-10-30T16:13:45.126Z,2.93
2022-10-30T16:16:21.585Z,3.20
2022-10-30T16:18:50.481Z,2.80
2022-10-30T16:21:24.737Z,3.17
2022-10-30T16:23:55.253Z,2.90
2022-10-30T16:26:32.804Z,2.57
2022-10-30T16:29:10.036Z,2.53
2022-10-30T16:31:40.387Z,3.03
2022-10-30T16:34:14.833Z,3.23
2022-10-30T16:36:43.883Z,3.13
2022-10-30T16:39:16.592Z,3.43
2022-10-30T16:41:48.455Z,3.07
2022-10-30T16:44:21.315Z,3.60
2022-10-30T16:46:52.637Z,3.03
2022-10-30T16:49:27.943Z,4.83
2022-10-30T16:52:00.047Z,4.50
2022-10-30T16:54:32.423Z,5.73
2022-10-30T16:57:04.328Z,5.43
2022-10-30T16:59:37.359Z,4.57
2022-10-30T17:02:16.034Z,5.50
2022-10-30T17:04:49.394Z,6.70
2022-10-30T17:07:21.642Z,5.20
2022-10-30T17:09:52.652Z,6.13
2022-10-30T17:12:26.815Z,4.50
2022-10-30T17:15:04.411Z,5.50
2022-10-30T17:17:44.053Z,5.50
2022-10-30T17:20:30.881Z,5.93
2022-10-30T17:23:08.752Z,6.17
2022-10-30T17:25:38.334Z,7.27
2022-10-30T17:28:07.362Z,8.30
2022-10-30T17:30:39.882Z,7.60
2022-10-30T17:33:40.950Z,6.88
2022-10-30T17:36:10.494Z,7.90
2022-10-30T17:38:38.785Z,7.50
2022-10-30T17:41:08.491Z,9.40
2022-10-30T17:43:50.035Z,9.47
2022-10-30T17:46:20.724Z,8.13
2022-10-30T17:48:49.318Z,8.33
2022-10-30T17:51:18.787Z,8.47
2022-10-30T17:53:49.056Z,7.53
2022-10-30T17:56:22.674Z,8.90
2022-10-30T17:58:50.826Z,6.73
2022-10-30T18:01:24.944Z,8.00
2022-10-30T18:03:55.307Z,8.50
2022-10-30T18:06:25.924Z,8.27
2022-10-30T18:08:54.958Z,8.07
2022-10-30T18:11:27.227Z,8.43
2022-10-30T18:13:57.895Z,8.02
2022-10-30T18:16:27.714Z,9.70
2022-10-30T18:18:58.683Z,8.87
2022-10-30T18:21:27.566Z,8.98
2022-10-30T18:23:56.372Z,9.20
2022-10-30T18:26:28.394Z,10.63
2022-10-30T18:28:56.481Z,9.87
2022-10-30T18:31:25.323Z,8.30
2022-10-30T18:33:54.905Z,8.67
2022-10-30T18:36:26.641Z,11.90
2022-10-30T18:38:56.276Z,8.80
2022-10-30T18:41:30.781Z,8.93
2022-10-30T18:43:58.962Z,8.20
2022-10-30T18:46:27.316Z,9.50
2022-10-30T18:48:56.974Z,10.30
2022-10-30T18:51:27.763Z,10.13
2022-10-30T18:53:57.046Z,8.50
2022-10-30T18:56:27.474Z,14.10
2022-10-30T18:59:00.684Z,9.60
2022-10-30T19:01:31.895Z,10.50
2022-10-30T19:04:03.690Z,11.60
2022-10-30T19:06:34.179Z,11.67
2022-10-30T19:09:02.767Z,10.80
2022-10-30T19:11:32.079Z,9.50
2022-10-30T19:14:00.797Z,11.43
2022-10-30T19:16:38.656Z,9.73
2022-10-30T19:19:10.762Z,11.77
2022-10-30T19:21:38.899Z,9.40
2022-10-30T19:27:02.803Z,10.53
2022-10-30T19:29:31.280Z,9.80
2022-10-30T19:32:00.788Z,9.20
2022-10-30T19:34:46.048Z,8.70
2022-10-30T19:37:17.275Z,10.33
2022-10-30T19:39:47.995Z,10.80
2022-10-30T19:42:17.218Z,10.73
2022-10-30T19:44:45.970Z,9.80
2022-10-30T19:48:40.546Z,12.43
2022-10-30T19:51:11.842Z,9.73
2022-10-30T20:20:32.742Z,10.80
2022-10-30T20:23:00.851Z,11.40
2022-10-30T20:25:31.317Z,10.40
2022-10-30T20:28:05.651Z,10.20
2022-10-30T20:30:35.340Z,10.73
2022-10-30T20:33:03.650Z,10.70
2022-10-30T20:35:33.273Z,11.10
2022-10-30T20:38:03.206Z,9.37
2022-10-30T20:40:35.357Z,11.60
2022-10-30T20:43:03.473Z,11.57
2022-10-30T20:45:32.003Z,10.80
2022-10-30T20:48:00.374Z,10.77
2022-10-30T20:50:29.219Z,12.60
2022-10-30T20:52:58.617Z,11.40
2022-10-30T20:55:26.868Z,10.50
2022-10-30T20:57:55.184Z,10.07
2022-10-30T21:00:23.403Z,10.77
2022-10-30T21:02:51.578Z,9.57
2022-10-30T21:05:42.122Z,11.20
2022-10-30T21:08:10.234Z,10.03
2022-10-30T21:10:38.661Z,11.03
2022-10-30T21:13:09.031Z,9.20
2022-10-30T21:15:39.636Z,8.83
2022-10-30T21:18:08.079Z,9.77
2022-10-30T21:20:37.751Z,10.57
2022-10-30T21:23:06.281Z,9.40
2022-10-30T21:25:36.187Z,9.60
2022-10-30T21:28:04.864Z,9.60
2022-10-30T21:30:32.969Z,8.73
2022-10-30T21:33:01.351Z,10.63
2022-10-30T21:35:29.547Z,9.23
2022-10-30T21:37:57.867Z,9.37
2022-10-30T21:40:25.880Z,9.80
2022-10-30T21:42:58.515Z,8.53
2022-10-30T21:45:29.706Z,9.50
2022-10-30T21:47:57.752Z,9.57
2022-10-30T21:50:26.084Z,10.07
2022-10-30T21:52:54.369Z,9.40
2022-10-30T21:55:23.616Z,9.20
2022-10-30T21:57:52.461Z,9.70
2022-10-30T22:00:22.100Z,8.73
2022-10-30T22:02:50.265Z,9.73
2022-10-30T22:05:18.429Z,9.73
2022-10-30T22:08:38.218Z,8.87
2022-10-30T22:11:07.450Z,9.30
2022-10-30T22:13:36.472Z,9.53
2022-10-30T22:16:07.273Z,10.57
2022-10-30T22:18:36.395Z,9.57
2022-10-30T22:21:07.178Z,9.70
2022-10-30T22:23:36.207Z,9.57
2022-10-30T22:26:06.732Z,9.17
2022-10-30T22:28:35.625Z,9.00
2022-10-30T22:31:06.767Z,8.63
2022-10-30T22:33:35.103Z,8.50
2022-10-30T22:36:05.445Z,8.53
2022-10-30T22:38:34.382Z,9.43
2022-10-30T22:41:10.830Z,9.50
2022-10-30T22:43:39.141Z,8.50
2022-10-30T22:46:08.771Z,8.70
2022-10-30T22:48:36.816Z,7.97
2022-10-30T22:51:11.770Z,9.83
2022-10-30T22:53:43.578Z,7.97
2022-10-30T22:56:18.244Z,7.63
2022-10-30T22:58:47.515Z,8.20
2022-10-30T23:01:19.034Z,6.60
2022-10-30T23:03:47.846Z,8.10
2022-10-30T23:06:16.444Z,6.90
2022-10-30T23:08:44.564Z,9.57
2022-10-30T23:11:13.421Z,6.40
2022-10-30T23:13:41.806Z,6.97
2022-10-30T23:16:16.308Z,6.37
2022-10-30T23:18:46.924Z,7.10
2022-10-30T23:21:19.216Z,6.37
2022-10-30T23:23:48.293Z,7.23
2022-10-30T23:26:19.539Z,6.07
2022-10-30T23:31:44.591Z,6.33
2022-10-30T23:34:15.960Z,7.17
2022-10-30T23:36:44.750Z,6.50
2022-10-30T23:39:15.868Z,6.17
2022-10-30T23:41:44.165Z,5.97
2022-10-30T23:44:14.268Z,7.00
2022-10-30T23:46:42.470Z,5.87
2022-10-30T23:49:10.328Z,5.50
2022-10-30T23:51:40.218Z,6.37
2022-10-30T23:54:08.236Z,5.80
2022-10-30T23:56:36.342Z,5.43
2022-10-30T23:59:04.369Z,6.40
